x

N01 - Northeast Channel (44024) Wave Buoy

8:04pm - Mon 22nd Sep 2014 All times are ADT. -3 hours from GMT.

  • Sig Wave height 13.4ft
  • Peak Period 11s
  • Wind
    18mph, 22mph gusts
  • Sea Temp 67°f
  • Air Temp 65°f
  • Sea Pressure 1009.5mb
  • N01 - Northeast Channel
  • N01 - Northeast Channel

More Historic Weather Station data

Upgrade to MSW Pro to gain access to the past 30 days of data for over 8000 Wavebouys and Weather Stations around the globe.

Join Pro

Comparision Forecast

View Surf forecast
   
Mon 09/22 8:04pm 13.5ft 11s 18 22 mph 1009.5mb 67f 65f
7:04pm 13ft 11s 20 22 mph 1008.7mb 66f 65f
6:04pm  -   -  20 25 mph 1008mb - 66f
5:04pm 13ft 11s 20 25 mph 1007.3mb 66f 66f
4:04pm  -   -  18 25 mph 1006.7mb 66f 66f
3:04pm 13ft 11s 20 27 mph 1006.2mb 67f 67f
2:04pm 15.5ft 11s 20 22 mph 1006mb 67f 66f
1:04pm 15.5ft 11s 25 29 mph 1006mb 67f 66f
12:04pm 16ft 11s 22 27 mph 1005.4mb 66f 66f
11:04am 15.5ft 11s 25 29 mph 1005mb 66f 65f
9:04am  -   -  20 25 mph 1003.4mb 66f 65f
8:04am 13.5ft 11s  -  mph - 66f -
7:04am 18.5ft 11s  -  mph - 66f -
6:04am 17ft 11s  -  mph - 66f -
4:04am 15.5ft 11s 25 31 mph 995.7mb 66f 69f
3:04am  -   -  31 40 mph 995.5mb - 71f
2:04am 11ft 8s 31 40 mph 996.7mb 67f 71f
1:04am 8ft 8s 29 36 mph 998.7mb 66f 69f
12:04am 7.5ft 8s 20 22 mph 1001.8mb 68f 68f
Sun 09/21 11:04pm 7.5ft 8s 20 25 mph 1003.1mb 67f 68f
10:04pm  -   -  29 36 mph 1003.6mb - 69f
9:04pm  -   -  22 25 mph 1004.3mb - 68f
7:04pm 3.5ft 5s 22 27 mph 1008.1mb 66f 69f
5:04pm 4ft 6s 13 18 mph 1009.9mb 65f 68f
4:04pm 3.5ft 8s 11 13 mph 1011.3mb 65f 67f
3:04pm 4ft 6s 13 16 mph 1012.6mb 65f 67f
2:04pm 4ft 6s 16 18 mph 1014.2mb 65f 67f
12:04pm 3.5ft 6s 13 16 mph 1016.9mb 64f 67f
11:04am  -   -  11 13 mph 1017.3mb - 67f
10:04am 2.5ft 5s 11 13 mph 1017.8mb 64f 67f
9:04am 3.5ft 11s 13 16 mph 1018mb 64f 66f
8:04am 3.5ft 5s 11 13 mph 1018.3mb 64f 66f
7:04am 3.5ft 11s 9 11 mph 1018.6mb 64f 65f
6:04am 3ft 8s 4 7 mph 1019mb 65f 65f
5:04am 3.5ft 11s 7
mph
1019.4mb 65f 65f
4:04am 3ft 5s 9 11 mph 1019.8mb 65f 65f
2:04am 3ft 5s 13 16 mph 1021.1mb 64f 66f
1:04am 3ft 5s 11 13 mph 1021.7mb 64f 66f
12:04am 2.5ft 5s 13 16 mph 1022mb 64f 66f
Sat 09/20 10:04pm 2.5ft 4s 11 13 mph 1023mb 65f 66f
9:04pm 2ft 4s 11 13 mph 1023.3mb 65f 65f
8:04pm 3ft 4s 11 16 mph 1023.1mb 64f 65f
7:04pm 2.5ft 11s 11 13 mph 1023.5mb 65f 65f
6:04pm 2ft 4s 11 13 mph 1023.9mb 65f 65f
5:04pm 3ft 4s 11 13 mph 1024.4mb 65f 65f
4:04pm 3.5ft 4s 13 16 mph 1025.1mb 65f 65f
3:04pm 2ft 4s 13 16 mph 1025.5mb 65f 64f
2:04pm 2ft 4s 13 18 mph 1026mb 65f 63f
1:04pm 2ft 4s 13 18 mph 1027.1mb 65f 62f
12:04pm 4ft 11s 13 16 mph 1027.8mb 65f 62f
11:04am 3.5ft 8s 13 18 mph 1028.3mb 65f 61f
9:04am 2.5ft 8s 16 20 mph 1029mb 65f 59f
8:04am 3ft 8s 13 18 mph 1029.2mb 64f 59f
7:04am 3ft 11s 11 13 mph 1029.2mb 64f 58f
6:04am 3.5ft 11s 9 13 mph 1029.3mb 65f 57f
5:04am 3.5ft 5s 9 11 mph 1029mb 65f 56f
4:04am 3.5ft 8s 9 13 mph 1028.9mb 65f 56f
3:04am 4.5ft 5s 7 11 mph 1029mb 65f 56f
2:04am 4ft 5s 7 9 mph 1029.7mb 65f 55f
1:04am 4.5ft 5s 7 9 mph 1029.5mb 65f 55f
12:04am 4ft 5s 7 9 mph 1029.5mb 64f 54f
Fri 09/19 11:04pm 4.5ft 6s 7 11 mph 1029.8mb 64f 54f
10:04pm 4.5ft 6s 9 11 mph 1029.3mb 64f 54f
6:04pm 5.5ft 6s 18 25 mph 1027.3mb 65f 53f
5:04pm 6.5ft 6s 20 25 mph 1026.8mb 65f 53f
4:04pm 6ft 5s 18 25 mph 1026.5mb 65f 53f
3:04pm  -   -  18 22 mph 1025.9mb - 52f
1:04pm 7ft 6s 18 25 mph 1025.2mb 64f 53f
12:04pm  -   -  18 25 mph 1024.7mb - 53f
10:04am 6ft 5s 20 25 mph 1023.4mb 64f 54f
9:04am 6.5ft 5s 20 22 mph 1022.3mb 65f 54f
8:04am 5ft 6s 20 25 mph 1021.1mb 65f 56f
7:04am 4.5ft 5s 20 25 mph 1019.9mb 65f 56f
6:04am 4ft 5s  -  mph - 65f -
5:04am 3.5ft 4s  -  mph - 67f -
4:04am 2.5ft 3s  -  mph - 64f -
1:04am  -   -  16 18 mph 1015.4mb - 61f